sensor_id;sensor_type;location;lat;lon;timestamp;P1;durP1;ratioP1;P2;durP2;ratioP2
19929;SDS011;10127;47.780;9.606;2023-01-28T00:01:45;27.57;;;14.50;;
19929;SDS011;10127;47.780;9.606;2023-01-28T00:04:10;26.80;;;14.23;;
19929;SDS011;10127;47.780;9.606;2023-01-28T00:06:36;28.60;;;15.37;;
19929;SDS011;10127;47.780;9.606;2023-01-28T00:09:02;26.83;;;13.57;;
19929;SDS011;10127;47.780;9.606;2023-01-28T00:11:28;27.67;;;14.70;;
19929;SDS011;10127;47.780;9.606;2023-01-28T00:13:53;29.90;;;15.40;;
19929;SDS011;10127;47.780;9.606;2023-01-28T00:16:19;29.07;;;15.83;;
19929;SDS011;10127;47.780;9.606;2023-01-28T00:18:48;27.40;;;15.10;;
19929;SDS011;10127;47.780;9.606;2023-01-28T00:21:14;31.33;;;15.20;;
19929;SDS011;10127;47.780;9.606;2023-01-28T00:23:40;28.50;;;14.37;;
19929;SDS011;10127;47.780;9.606;2023-01-28T00:26:10;29.07;;;16.30;;
19929;SDS011;10127;47.780;9.606;2023-01-28T00:28:38;26.93;;;15.70;;
19929;SDS011;10127;47.780;9.606;2023-01-28T00:33:42;31.87;;;15.60;;
19929;SDS011;10127;47.780;9.606;2023-01-28T00:36:08;27.77;;;15.47;;
19929;SDS011;10127;47.780;9.606;2023-01-28T00:38:35;28.53;;;16.30;;
19929;SDS011;10127;47.780;9.606;2023-01-28T00:41:11;28.00;;;16.03;;
19929;SDS011;10127;47.780;9.606;2023-01-28T00:43:38;28.40;;;15.57;;
19929;SDS011;10127;47.780;9.606;2023-01-28T00:46:05;28.10;;;15.10;;
19929;SDS011;10127;47.780;9.606;2023-01-28T00:48:32;29.77;;;16.60;;
19929;SDS011;10127;47.780;9.606;2023-01-28T00:50:58;26.83;;;14.73;;
19929;SDS011;10127;47.780;9.606;2023-01-28T00:53:24;31.57;;;15.57;;
19929;SDS011;10127;47.780;9.606;2023-01-28T00:55:49;29.00;;;14.60;;
19929;SDS011;10127;47.780;9.606;2023-01-28T00:58:15;29.97;;;16.20;;
19929;SDS011;10127;47.780;9.606;2023-01-28T01:00:41;26.30;;;15.27;;
19929;SDS011;10127;47.780;9.606;2023-01-28T01:03:06;28.33;;;15.67;;
19929;SDS011;10127;47.780;9.606;2023-01-28T01:05:32;29.47;;;15.83;;
19929;SDS011;10127;47.780;9.606;2023-01-28T01:07:58;28.73;;;16.57;;
19929;SDS011;10127;47.780;9.606;2023-01-28T01:10:24;28.43;;;15.87;;
19929;SDS011;10127;47.780;9.606;2023-01-28T01:12:50;26.40;;;15.13;;
19929;SDS011;10127;47.780;9.606;2023-01-28T01:15:16;27.70;;;15.50;;
19929;SDS011;10127;47.780;9.606;2023-01-28T01:17:43;26.03;;;14.83;;
19929;SDS011;10127;47.780;9.606;2023-01-28T01:20:12;27.20;;;14.80;;
19929;SDS011;10127;47.780;9.606;2023-01-28T01:22:40;25.77;;;15.23;;
19929;SDS011;10127;47.780;9.606;2023-01-28T01:25:05;28.50;;;16.80;;
19929;SDS011;10127;47.780;9.606;2023-01-28T01:27:31;28.40;;;15.70;;
19929;SDS011;10127;47.780;9.606;2023-01-28T01:29:57;26.33;;;14.03;;
19929;SDS011;10127;47.780;9.606;2023-01-28T01:32:23;26.90;;;15.47;;
19929;SDS011;10127;47.780;9.606;2023-01-28T01:34:52;26.27;;;14.90;;
19929;SDS011;10127;47.780;9.606;2023-01-28T01:37:18;29.10;;;16.20;;
19929;SDS011;10127;47.780;9.606;2023-01-28T01:39:44;26.93;;;14.80;;
19929;SDS011;10127;47.780;9.606;2023-01-28T01:42:10;28.60;;;14.93;;
19929;SDS011;10127;47.780;9.606;2023-01-28T01:47:40;26.83;;;14.53;;
19929;SDS011;10127;47.780;9.606;2023-01-28T01:50:50;25.07;;;14.97;;
19929;SDS011;10127;47.780;9.606;2023-01-28T01:53:02;30.10;;;15.60;;
19929;SDS011;10127;47.780;9.606;2023-01-28T01:55:34;28.07;;;15.07;;
19929;SDS011;10127;47.780;9.606;2023-01-28T01:58:07;23.77;;;13.73;;
19929;SDS011;10127;47.780;9.606;2023-01-28T02:00:35;26.57;;;14.07;;
19929;SDS011;10127;47.780;9.606;2023-01-28T02:03:01;28.90;;;14.80;;
19929;SDS011;10127;47.780;9.606;2023-01-28T02:05:27;27.37;;;14.63;;
19929;SDS011;10127;47.780;9.606;2023-01-28T02:07:54;27.87;;;14.60;;
19929;SDS011;10127;47.780;9.606;2023-01-28T02:10:55;30.13;;;14.70;;
19929;SDS011;10127;47.780;9.606;2023-01-28T02:13:28;28.90;;;15.60;;
19929;SDS011;10127;47.780;9.606;2023-01-28T02:16:00;32.83;;;14.43;;
19929;SDS011;10127;47.780;9.606;2023-01-28T02:18:28;26.13;;;14.70;;
19929;SDS011;10127;47.780;9.606;2023-01-28T02:21:03;24.37;;;13.77;;
19929;SDS011;10127;47.780;9.606;2023-01-28T02:23:47;25.70;;;14.47;;
19929;SDS011;10127;47.780;9.606;2023-01-28T02:29:36;24.47;;;13.97;;
19929;SDS011;10127;47.780;9.606;2023-01-28T02:32:16;24.30;;;13.27;;
19929;SDS011;10127;47.780;9.606;2023-01-28T02:35:28;21.00;;;11.67;;
19929;SDS011;10127;47.780;9.606;2023-01-28T02:38:19;23.63;;;13.10;;
19929;SDS011;10127;47.780;9.606;2023-01-28T02:41:06;21.90;;;12.33;;
19929;SDS011;10127;47.780;9.606;2023-01-28T02:43:37;22.07;;;12.77;;
19929;SDS011;10127;47.780;9.606;2023-01-28T02:49:11;22.63;;;12.50;;
19929;SDS011;10127;47.780;9.606;2023-01-28T03:12:17;19.07;;;11.73;;
19929;SDS011;10127;47.780;9.606;2023-01-28T03:15:07;22.23;;;12.13;;
19929;SDS011;10127;47.780;9.606;2023-01-28T03:17:57;21.03;;;12.33;;
19929;SDS011;10127;47.780;9.606;2023-01-28T03:21:06;21.27;;;12.37;;
19929;SDS011;10127;47.780;9.606;2023-01-28T03:23:58;21.30;;;11.77;;
19929;SDS011;10127;47.780;9.606;2023-01-28T03:26:55;20.37;;;12.27;;
19929;SDS011;10127;47.780;9.606;2023-01-28T03:29:39;19.33;;;11.57;;
19929;SDS011;10127;47.780;9.606;2023-01-28T03:32:26;21.27;;;12.07;;
19929;SDS011;10127;47.780;9.606;2023-01-28T03:35:11;19.93;;;11.37;;
19929;SDS011;10127;47.780;9.606;2023-01-28T03:37:58;20.97;;;11.53;;
19929;SDS011;10127;47.780;9.606;2023-01-28T03:40:24;19.47;;;11.37;;
19929;SDS011;10127;47.780;9.606;2023-01-28T03:42:50;20.20;;;11.77;;
19929;SDS011;10127;47.780;9.606;2023-01-28T03:45:18;18.60;;;11.00;;
19929;SDS011;10127;47.780;9.606;2023-01-28T03:47:45;17.60;;;10.60;;
19929;SDS011;10127;47.780;9.606;2023-01-28T03:50:10;20.77;;;12.40;;
19929;SDS011;10127;47.780;9.606;2023-01-28T03:52:36;21.20;;;11.97;;
19929;SDS011;10127;47.780;9.606;2023-01-28T03:55:02;18.20;;;11.07;;
19929;SDS011;10127;47.780;9.606;2023-01-28T03:57:37;21.33;;;11.40;;
19929;SDS011;10127;47.780;9.606;2023-01-28T04:00:03;18.73;;;11.50;;
19929;SDS011;10127;47.780;9.606;2023-01-28T04:02:29;20.53;;;12.20;;
19929;SDS011;10127;47.780;9.606;2023-01-28T04:04:54;19.10;;;11.60;;
19929;SDS011;10127;47.780;9.606;2023-01-28T04:07:23;19.43;;;11.77;;
19929;SDS011;10127;47.780;9.606;2023-01-28T04:09:48;16.33;;;10.83;;
19929;SDS011;10127;47.780;9.606;2023-01-28T04:12:14;20.23;;;12.33;;
19929;SDS011;10127;47.780;9.606;2023-01-28T04:14:39;18.77;;;11.63;;
19929;SDS011;10127;47.780;9.606;2023-01-28T04:17:05;20.07;;;11.60;;
19929;SDS011;10127;47.780;9.606;2023-01-28T04:19:34;19.00;;;12.07;;
19929;SDS011;10127;47.780;9.606;2023-01-28T04:22:01;19.67;;;12.17;;
19929;SDS011;10127;47.780;9.606;2023-01-28T04:24:31;21.13;;;13.13;;
19929;SDS011;10127;47.780;9.606;2023-01-28T04:26:57;21.47;;;12.70;;
19929;SDS011;10127;47.780;9.606;2023-01-28T04:29:22;21.03;;;12.73;;
19929;SDS011;10127;47.780;9.606;2023-01-28T04:31:48;20.07;;;12.13;;
19929;SDS011;10127;47.780;9.606;2023-01-28T04:34:13;21.43;;;12.27;;
19929;SDS011;10127;47.780;9.606;2023-01-28T04:36:39;22.97;;;12.77;;
19929;SDS011;10127;47.780;9.606;2023-01-28T04:39:05;23.20;;;13.33;;
19929;SDS011;10127;47.780;9.606;2023-01-28T04:41:30;25.30;;;14.83;;
19929;SDS011;10127;47.780;9.606;2023-01-28T04:43:56;22.57;;;13.50;;
19929;SDS011;10127;47.780;9.606;2023-01-28T04:46:21;22.00;;;14.20;;
19929;SDS011;10127;47.780;9.606;2023-01-28T04:48:47;21.40;;;13.37;;
19929;SDS011;10127;47.780;9.606;2023-01-28T04:51:12;23.37;;;13.90;;
19929;SDS011;10127;47.780;9.606;2023-01-28T04:53:38;23.70;;;13.87;;
19929;SDS011;10127;47.780;9.606;2023-01-28T04:56:03;23.70;;;13.57;;
19929;SDS011;10127;47.780;9.606;2023-01-28T04:58:29;23.33;;;13.50;;
19929;SDS011;10127;47.780;9.606;2023-01-28T05:00:55;23.97;;;14.17;;
19929;SDS011;10127;47.780;9.606;2023-01-28T05:03:21;22.80;;;13.90;;
19929;SDS011;10127;47.780;9.606;2023-01-28T05:05:47;24.60;;;14.63;;
19929;SDS011;10127;47.780;9.606;2023-01-28T05:08:13;26.53;;;14.73;;
19929;SDS011;10127;47.780;9.606;2023-01-28T05:10:39;24.97;;;14.73;;
19929;SDS011;10127;47.780;9.606;2023-01-28T05:13:04;27.53;;;13.23;;
19929;SDS011;10127;47.780;9.606;2023-01-28T05:15:30;24.83;;;13.93;;
19929;SDS011;10127;47.780;9.606;2023-01-28T05:17:56;24.63;;;13.27;;
19929;SDS011;10127;47.780;9.606;2023-01-28T05:20:21;24.70;;;13.50;;
19929;SDS011;10127;47.780;9.606;2023-01-28T05:22:47;26.17;;;12.90;;
19929;SDS011;10127;47.780;9.606;2023-01-28T05:25:12;25.80;;;13.70;;
19929;SDS011;10127;47.780;9.606;2023-01-28T05:27:38;22.50;;;12.17;;
19929;SDS011;10127;47.780;9.606;2023-01-28T05:30:04;25.23;;;13.73;;
19929;SDS011;10127;47.780;9.606;2023-01-28T05:32:30;25.97;;;13.67;;
19929;SDS011;10127;47.780;9.606;2023-01-28T05:34:56;24.33;;;13.70;;
19929;SDS011;10127;47.780;9.606;2023-01-28T05:37:22;23.33;;;13.00;;
19929;SDS011;10127;47.780;9.606;2023-01-28T05:39:47;23.43;;;13.93;;
19929;SDS011;10127;47.780;9.606;2023-01-28T05:42:13;24.73;;;13.53;;
19929;SDS011;10127;47.780;9.606;2023-01-28T05:44:39;26.67;;;13.53;;
19929;SDS011;10127;47.780;9.606;2023-01-28T05:47:05;24.90;;;13.90;;
19929;SDS011;10127;47.780;9.606;2023-01-28T05:49:31;23.73;;;13.00;;
19929;SDS011;10127;47.780;9.606;2023-01-28T05:51:56;24.93;;;13.63;;
19929;SDS011;10127;47.780;9.606;2023-01-28T05:54:22;24.17;;;13.33;;
19929;SDS011;10127;47.780;9.606;2023-01-28T05:56:48;28.00;;;15.27;;
19929;SDS011;10127;47.780;9.606;2023-01-28T05:59:13;26.03;;;13.40;;
19929;SDS011;10127;47.780;9.606;2023-01-28T06:01:39;27.03;;;14.13;;
19929;SDS011;10127;47.780;9.606;2023-01-28T06:04:05;28.63;;;14.57;;
19929;SDS011;10127;47.780;9.606;2023-01-28T06:06:30;25.53;;;13.53;;
19929;SDS011;10127;47.780;9.606;2023-01-28T06:08:56;25.20;;;14.50;;
19929;SDS011;10127;47.780;9.606;2023-01-28T06:11:21;22.93;;;13.67;;
19929;SDS011;10127;47.780;9.606;2023-01-28T06:13:47;26.53;;;13.73;;
19929;SDS011;10127;47.780;9.606;2023-01-28T06:16:13;26.57;;;14.27;;
19929;SDS011;10127;47.780;9.606;2023-01-28T06:18:38;22.03;;;13.03;;
19929;SDS011;10127;47.780;9.606;2023-01-28T06:21:05;21.70;;;12.47;;
19929;SDS011;10127;47.780;9.606;2023-01-28T06:23:31;27.40;;;14.47;;
19929;SDS011;10127;47.780;9.606;2023-01-28T06:25:57;25.60;;;14.07;;
19929;SDS011;10127;47.780;9.606;2023-01-28T06:28:22;24.53;;;13.03;;
19929;SDS011;10127;47.780;9.606;2023-01-28T06:30:49;26.93;;;13.27;;
19929;SDS011;10127;47.780;9.606;2023-01-28T06:33:16;25.90;;;12.53;;
19929;SDS011;10127;47.780;9.606;2023-01-28T06:35:42;25.40;;;12.97;;
19929;SDS011;10127;47.780;9.606;2023-01-28T06:38:07;27.27;;;14.10;;
19929;SDS011;10127;47.780;9.606;2023-01-28T06:40:33;22.60;;;13.30;;
19929;SDS011;10127;47.780;9.606;2023-01-28T06:42:59;25.17;;;13.17;;
19929;SDS011;10127;47.780;9.606;2023-01-28T06:45:25;25.80;;;13.57;;
19929;SDS011;10127;47.780;9.606;2023-01-28T06:47:50;23.47;;;13.37;;
19929;SDS011;10127;47.780;9.606;2023-01-28T06:50:16;27.87;;;13.97;;
19929;SDS011;10127;47.780;9.606;2023-01-28T06:52:41;26.27;;;13.97;;
19929;SDS011;10127;47.780;9.606;2023-01-28T06:55:07;27.70;;;13.63;;
19929;SDS011;10127;47.780;9.606;2023-01-28T06:57:36;25.73;;;13.90;;
19929;SDS011;10127;47.780;9.606;2023-01-28T07:00:06;31.13;;;14.27;;
19929;SDS011;10127;47.780;9.606;2023-01-28T07:02:34;27.33;;;14.63;;
19929;SDS011;10127;47.780;9.606;2023-01-28T07:05:04;27.27;;;13.97;;
19929;SDS011;10127;47.780;9.606;2023-01-28T07:07:30;25.63;;;13.33;;
19929;SDS011;10127;47.780;9.606;2023-01-28T07:09:56;27.13;;;14.73;;
19929;SDS011;10127;47.780;9.606;2023-01-28T07:12:21;23.97;;;13.10;;
19929;SDS011;10127;47.780;9.606;2023-01-28T07:14:47;25.97;;;13.70;;
19929;SDS011;10127;47.780;9.606;2023-01-28T07:17:12;22.70;;;11.80;;
19929;SDS011;10127;47.780;9.606;2023-01-28T07:19:38;20.53;;;11.80;;
19929;SDS011;10127;47.780;9.606;2023-01-28T07:22:03;29.43;;;13.13;;
19929;SDS011;10127;47.780;9.606;2023-01-28T07:24:29;29.27;;;14.33;;
19929;SDS011;10127;47.780;9.606;2023-01-28T07:26:55;35.10;;;15.30;;
19929;SDS011;10127;47.780;9.606;2023-01-28T07:29:21;29.67;;;14.37;;
19929;SDS011;10127;47.780;9.606;2023-01-28T07:31:46;27.37;;;15.23;;
19929;SDS011;10127;47.780;9.606;2023-01-28T07:34:12;35.83;;;15.60;;
19929;SDS011;10127;47.780;9.606;2023-01-28T07:36:38;27.63;;;14.50;;
19929;SDS011;10127;47.780;9.606;2023-01-28T07:39:04;29.27;;;14.27;;
19929;SDS011;10127;47.780;9.606;2023-01-28T07:41:31;28.43;;;14.30;;
19929;SDS011;10127;47.780;9.606;2023-01-28T07:43:57;23.30;;;13.47;;
19929;SDS011;10127;47.780;9.606;2023-01-28T07:46:22;22.97;;;11.67;;
19929;SDS011;10127;47.780;9.606;2023-01-28T07:48:48;18.20;;;10.47;;
19929;SDS011;10127;47.780;9.606;2023-01-28T07:51:13;16.30;;;9.47;;
19929;SDS011;10127;47.780;9.606;2023-01-28T07:53:39;16.70;;;9.43;;
19929;SDS011;10127;47.780;9.606;2023-01-28T07:56:05;13.87;;;8.20;;
19929;SDS011;10127;47.780;9.606;2023-01-28T07:58:31;12.73;;;7.40;;
19929;SDS011;10127;47.780;9.606;2023-01-28T08:00:58;14.27;;;6.63;;
19929;SDS011;10127;47.780;9.606;2023-01-28T08:03:24;12.63;;;6.73;;
19929;SDS011;10127;47.780;9.606;2023-01-28T08:05:51;12.50;;;7.53;;
19929;SDS011;10127;47.780;9.606;2023-01-28T08:08:18;12.80;;;7.47;;
19929;SDS011;10127;47.780;9.606;2023-01-28T08:10:44;13.80;;;7.70;;
19929;SDS011;10127;47.780;9.606;2023-01-28T08:13:11;12.40;;;7.53;;
19929;SDS011;10127;47.780;9.606;2023-01-28T08:15:38;12.93;;;8.13;;
19929;SDS011;10127;47.780;9.606;2023-01-28T08:18:05;11.90;;;7.33;;
19929;SDS011;10127;47.780;9.606;2023-01-28T08:20:32;13.57;;;7.40;;
19929;SDS011;10127;47.780;9.606;2023-01-28T08:23:08;15.57;;;8.07;;
19929;SDS011;10127;47.780;9.606;2023-01-28T08:25:37;15.10;;;8.80;;
19929;SDS011;10127;47.780;9.606;2023-01-28T08:28:03;15.80;;;7.90;;
19929;SDS011;10127;47.780;9.606;2023-01-28T08:30:29;13.57;;;8.00;;
19929;SDS011;10127;47.780;9.606;2023-01-28T08:32:56;14.13;;;8.10;;
19929;SDS011;10127;47.780;9.606;2023-01-28T08:35:23;12.60;;;7.40;;
19929;SDS011;10127;47.780;9.606;2023-01-28T08:37:49;15.87;;;8.60;;
19929;SDS011;10127;47.780;9.606;2023-01-28T08:40:15;16.00;;;9.27;;
19929;SDS011;10127;47.780;9.606;2023-01-28T08:42:45;17.03;;;10.30;;
19929;SDS011;10127;47.780;9.606;2023-01-28T08:45:13;18.23;;;10.27;;
19929;SDS011;10127;47.780;9.606;2023-01-28T08:47:48;20.53;;;11.13;;
19929;SDS011;10127;47.780;9.606;2023-01-28T08:50:14;16.77;;;9.60;;
19929;SDS011;10127;47.780;9.606;2023-01-28T08:52:40;16.63;;;10.00;;
19929;SDS011;10127;47.780;9.606;2023-01-28T08:55:08;14.70;;;9.33;;
19929;SDS011;10127;47.780;9.606;2023-01-28T08:57:37;43.37;;;22.63;;
19929;SDS011;10127;47.780;9.606;2023-01-28T09:00:04;17.27;;;10.37;;
19929;SDS011;10127;47.780;9.606;2023-01-28T09:02:30;19.07;;;10.93;;
19929;SDS011;10127;47.780;9.606;2023-01-28T09:04:56;17.93;;;10.67;;
19929;SDS011;10127;47.780;9.606;2023-01-28T09:07:22;15.80;;;9.50;;
19929;SDS011;10127;47.780;9.606;2023-01-28T09:09:47;18.37;;;9.00;;
19929;SDS011;10127;47.780;9.606;2023-01-28T09:12:13;14.50;;;9.13;;
19929;SDS011;10127;47.780;9.606;2023-01-28T09:14:38;17.37;;;10.10;;
19929;SDS011;10127;47.780;9.606;2023-01-28T09:17:04;16.87;;;9.80;;
19929;SDS011;10127;47.780;9.606;2023-01-28T09:19:30;16.60;;;9.03;;
19929;SDS011;10127;47.780;9.606;2023-01-28T09:21:55;15.03;;;9.07;;
19929;SDS011;10127;47.780;9.606;2023-01-28T09:24:21;15.63;;;8.90;;
19929;SDS011;10127;47.780;9.606;2023-01-28T09:26:47;15.57;;;9.63;;
19929;SDS011;10127;47.780;9.606;2023-01-28T09:29:13;15.00;;;8.63;;
19929;SDS011;10127;47.780;9.606;2023-01-28T09:31:39;14.63;;;8.30;;
19929;SDS011;10127;47.780;9.606;2023-01-28T09:34:06;16.70;;;9.90;;
19929;SDS011;10127;47.780;9.606;2023-01-28T09:36:31;16.40;;;8.47;;
19929;SDS011;10127;47.780;9.606;2023-01-28T09:38:57;12.80;;;7.87;;
19929;SDS011;10127;47.780;9.606;2023-01-28T09:44:09;11.43;;;6.70;;
19929;SDS011;10127;47.780;9.606;2023-01-28T09:46:51;13.97;;;7.93;;
19929;SDS011;10127;47.780;9.606;2023-01-28T09:49:23;13.90;;;8.40;;
19929;SDS011;10127;47.780;9.606;2023-01-28T09:51:59;13.33;;;8.27;;
19929;SDS011;10127;47.780;9.606;2023-01-28T09:57:05;13.87;;;8.20;;
19929;SDS011;10127;47.780;9.606;2023-01-28T09:59:44;13.20;;;8.40;;
19929;SDS011;10127;47.780;9.606;2023-01-28T10:07:55;13.40;;;8.50;;
19929;SDS011;10127;47.780;9.606;2023-01-28T10:10:34;14.17;;;7.90;;
19929;SDS011;10127;47.780;9.606;2023-01-28T10:21:13;15.80;;;9.53;;
19929;SDS011;10127;47.780;9.606;2023-01-28T10:23:55;15.40;;;9.47;;
19929;SDS011;10127;47.780;9.606;2023-01-28T10:26:35;16.00;;;9.93;;
19929;SDS011;10127;47.780;9.606;2023-01-28T10:29:20;15.80;;;9.63;;
19929;SDS011;10127;47.780;9.606;2023-01-28T10:31:53;16.80;;;10.93;;
19929;SDS011;10127;47.780;9.606;2023-01-28T10:34:29;15.90;;;9.23;;
19929;SDS011;10127;47.780;9.606;2023-01-28T10:36:55;14.80;;;8.83;;
19929;SDS011;10127;47.780;9.606;2023-01-28T10:39:22;14.77;;;9.00;;
19929;SDS011;10127;47.780;9.606;2023-01-28T10:41:50;15.27;;;8.43;;
19929;SDS011;10127;47.780;9.606;2023-01-28T10:44:20;12.50;;;8.40;;
19929;SDS011;10127;47.780;9.606;2023-01-28T10:47:01;15.47;;;9.07;;
19929;SDS011;10127;47.780;9.606;2023-01-28T10:49:31;12.80;;;8.10;;
19929;SDS011;10127;47.780;9.606;2023-01-28T10:52:12;14.90;;;8.30;;
19929;SDS011;10127;47.780;9.606;2023-01-28T10:54:39;20.23;;;9.83;;
19929;SDS011;10127;47.780;9.606;2023-01-28T10:57:07;14.17;;;8.87;;
19929;SDS011;10127;47.780;9.606;2023-01-28T10:59:37;17.93;;;9.47;;
19929;SDS011;10127;47.780;9.606;2023-01-28T11:07:41;17.17;;;9.03;;
19929;SDS011;10127;47.780;9.606;2023-01-28T11:10:23;14.50;;;9.47;;
19929;SDS011;10127;47.780;9.606;2023-01-28T11:12:55;14.30;;;8.40;;
19929;SDS011;10127;47.780;9.606;2023-01-28T11:15:21;15.87;;;9.33;;
19929;SDS011;10127;47.780;9.606;2023-01-28T11:17:47;13.53;;;8.33;;
19929;SDS011;10127;47.780;9.606;2023-01-28T11:20:20;13.43;;;8.70;;
19929;SDS011;10127;47.780;9.606;2023-01-28T11:22:47;12.27;;;7.93;;
19929;SDS011;10127;47.780;9.606;2023-01-28T11:25:17;14.63;;;7.90;;
19929;SDS011;10127;47.780;9.606;2023-01-28T11:27:50;13.00;;;7.77;;
19929;SDS011;10127;47.780;9.606;2023-01-28T11:35:38;14.77;;;8.67;;
19929;SDS011;10127;47.780;9.606;2023-01-28T11:38:11;16.47;;;8.10;;
19929;SDS011;10127;47.780;9.606;2023-01-28T11:40:49;17.13;;;8.80;;
19929;SDS011;10127;47.780;9.606;2023-01-28T11:43:16;15.17;;;8.50;;
19929;SDS011;10127;47.780;9.606;2023-01-28T11:48:38;12.77;;;7.63;;
19929;SDS011;10127;47.780;9.606;2023-01-28T11:51:52;11.70;;;7.37;;
19929;SDS011;10127;47.780;9.606;2023-01-28T12:07:54;13.53;;;8.23;;
19929;SDS011;10127;47.780;9.606;2023-01-28T12:10:27;13.13;;;8.20;;
19929;SDS011;10127;47.780;9.606;2023-01-28T12:13:12;14.53;;;9.10;;
19929;SDS011;10127;47.780;9.606;2023-01-28T12:18:36;15.87;;;8.90;;
19929;SDS011;10127;47.780;9.606;2023-01-28T12:24:11;16.47;;;9.63;;
19929;SDS011;10127;47.780;9.606;2023-01-28T12:27:09;15.07;;;8.93;;
19929;SDS011;10127;47.780;9.606;2023-01-28T12:29:44;14.83;;;8.37;;
19929;SDS011;10127;47.780;9.606;2023-01-28T12:32:23;14.30;;;8.80;;
19929;SDS011;10127;47.780;9.606;2023-01-28T12:40:45;15.90;;;9.27;;
19929;SDS011;10127;47.780;9.606;2023-01-28T12:43:17;13.13;;;7.33;;
19929;SDS011;10127;47.780;9.606;2023-01-28T12:45:55;13.67;;;7.90;;
19929;SDS011;10127;47.780;9.606;2023-01-28T12:48:33;12.67;;;7.27;;
19929;SDS011;10127;47.780;9.606;2023-01-28T12:51:09;15.47;;;8.83;;
19929;SDS011;10127;47.780;9.606;2023-01-28T12:54:02;14.13;;;8.20;;
19929;SDS011;10127;47.780;9.606;2023-01-28T12:56:44;13.37;;;8.20;;
19929;SDS011;10127;47.780;9.606;2023-01-28T13:00:04;14.77;;;7.30;;
19929;SDS011;10127;47.780;9.606;2023-01-28T13:02:16;16.20;;;8.23;;
19929;SDS011;10127;47.780;9.606;2023-01-28T13:05:13;13.60;;;8.07;;
19929;SDS011;10127;47.780;9.606;2023-01-28T13:07:55;14.13;;;7.37;;
19929;SDS011;10127;47.780;9.606;2023-01-28T13:10:37;8.73;;;5.90;;
19929;SDS011;10127;47.780;9.606;2023-01-28T13:13:53;14.33;;;7.60;;
19929;SDS011;10127;47.780;9.606;2023-01-28T13:15:56;14.00;;;7.77;;
19929;SDS011;10127;47.780;9.606;2023-01-28T13:21:27;12.37;;;7.30;;
19929;SDS011;10127;47.780;9.606;2023-01-28T13:24:17;14.03;;;7.63;;
19929;SDS011;10127;47.780;9.606;2023-01-28T13:26:52;13.47;;;7.83;;
19929;SDS011;10127;47.780;9.606;2023-01-28T13:31:58;14.30;;;9.03;;
19929;SDS011;10127;47.780;9.606;2023-01-28T13:36:51;14.87;;;9.40;;
19929;SDS011;10127;47.780;9.606;2023-01-28T13:39:21;19.30;;;10.40;;
19929;SDS011;10127;47.780;9.606;2023-01-28T13:41:53;17.87;;;11.03;;
19929;SDS011;10127;47.780;9.606;2023-01-28T13:44:37;18.50;;;11.13;;
19929;SDS011;10127;47.780;9.606;2023-01-28T13:54:50;22.00;;;11.57;;
19929;SDS011;10127;47.780;9.606;2023-01-28T13:57:30;22.57;;;12.70;;
19929;SDS011;10127;47.780;9.606;2023-01-28T14:06:20;19.40;;;11.40;;
19929;SDS011;10127;47.780;9.606;2023-01-28T14:17:30;16.67;;;10.03;;
19929;SDS011;10127;47.780;9.606;2023-01-28T14:19:58;21.27;;;11.27;;
19929;SDS011;10127;47.780;9.606;2023-01-28T14:22:24;17.63;;;11.47;;
19929;SDS011;10127;47.780;9.606;2023-01-28T14:24:50;18.03;;;9.50;;
19929;SDS011;10127;47.780;9.606;2023-01-28T14:27:17;17.00;;;10.80;;
19929;SDS011;10127;47.780;9.606;2023-01-28T14:33:00;18.37;;;10.83;;
19929;SDS011;10127;47.780;9.606;2023-01-28T14:35:36;22.93;;;10.67;;
19929;SDS011;10127;47.780;9.606;2023-01-28T14:38:08;17.37;;;10.53;;
19929;SDS011;10127;47.780;9.606;2023-01-28T14:40:39;18.50;;;10.83;;
19929;SDS011;10127;47.780;9.606;2023-01-28T14:43:06;16.20;;;10.70;;
19929;SDS011;10127;47.780;9.606;2023-01-28T14:50:56;16.17;;;10.33;;
19929;SDS011;10127;47.780;9.606;2023-01-28T14:59:23;19.70;;;10.33;;
19929;SDS011;10127;47.780;9.606;2023-01-28T15:01:56;18.20;;;10.77;;
19929;SDS011;10127;47.780;9.606;2023-01-28T15:04:24;19.77;;;10.77;;
19929;SDS011;10127;47.780;9.606;2023-01-28T15:07:00;18.60;;;10.60;;
19929;SDS011;10127;47.780;9.606;2023-01-28T15:09:42;16.27;;;10.50;;
19929;SDS011;10127;47.780;9.606;2023-01-28T15:12:08;23.40;;;11.50;;
19929;SDS011;10127;47.780;9.606;2023-01-28T15:14:34;19.57;;;10.87;;
19929;SDS011;10127;47.780;9.606;2023-01-28T15:17:00;16.90;;;9.37;;
19929;SDS011;10127;47.780;9.606;2023-01-28T15:19:30;16.73;;;10.80;;
19929;SDS011;10127;47.780;9.606;2023-01-28T15:21:59;19.77;;;11.17;;
19929;SDS011;10127;47.780;9.606;2023-01-28T15:24:30;26.70;;;10.60;;
19929;SDS011;10127;47.780;9.606;2023-01-28T15:26:58;16.93;;;9.77;;
19929;SDS011;10127;47.780;9.606;2023-01-28T15:29:31;15.87;;;9.67;;
19929;SDS011;10127;47.780;9.606;2023-01-28T15:32:02;20.80;;;11.73;;
19929;SDS011;10127;47.780;9.606;2023-01-28T15:34:28;18.43;;;11.13;;
19929;SDS011;10127;47.780;9.606;2023-01-28T15:36:55;16.80;;;10.27;;
19929;SDS011;10127;47.780;9.606;2023-01-28T15:39:22;17.87;;;10.30;;
19929;SDS011;10127;47.780;9.606;2023-01-28T15:41:50;18.57;;;11.30;;
19929;SDS011;10127;47.780;9.606;2023-01-28T15:44:25;28.50;;;15.13;;
19929;SDS011;10127;47.780;9.606;2023-01-28T15:46:57;18.23;;;11.60;;
19929;SDS011;10127;47.780;9.606;2023-01-28T15:49:25;18.80;;;10.60;;
19929;SDS011;10127;47.780;9.606;2023-01-28T15:51:57;17.97;;;11.33;;
19929;SDS011;10127;47.780;9.606;2023-01-28T15:54:22;19.37;;;10.53;;
19929;SDS011;10127;47.780;9.606;2023-01-28T15:56:49;18.93;;;11.30;;
19929;SDS011;10127;47.780;9.606;2023-01-28T16:01:41;18.80;;;10.47;;
19929;SDS011;10127;47.780;9.606;2023-01-28T16:04:40;16.87;;;10.27;;
19929;SDS011;10127;47.780;9.606;2023-01-28T16:07:01;19.47;;;11.73;;
19929;SDS011;10127;47.780;9.606;2023-01-28T16:09:29;17.57;;;10.70;;
19929;SDS011;10127;47.780;9.606;2023-01-28T16:12:04;19.83;;;11.23;;
19929;SDS011;10127;47.780;9.606;2023-01-28T16:14:40;18.20;;;11.17;;
19929;SDS011;10127;47.780;9.606;2023-01-28T16:17:08;19.77;;;11.70;;
19929;SDS011;10127;47.780;9.606;2023-01-28T16:19:40;20.77;;;11.60;;
19929;SDS011;10127;47.780;9.606;2023-01-28T16:22:17;21.07;;;12.03;;
19929;SDS011;10127;47.780;9.606;2023-01-28T16:24:49;18.77;;;12.17;;
19929;SDS011;10127;47.780;9.606;2023-01-28T16:27:20;20.90;;;12.10;;
19929;SDS011;10127;47.780;9.606;2023-01-28T16:29:50;20.27;;;11.73;;
19929;SDS011;10127;47.780;9.606;2023-01-28T16:35:01;22.77;;;12.90;;
19929;SDS011;10127;47.780;9.606;2023-01-28T16:37:28;21.20;;;12.33;;
19929;SDS011;10127;47.780;9.606;2023-01-28T16:39:54;21.40;;;11.63;;
19929;SDS011;10127;47.780;9.606;2023-01-28T16:42:19;20.07;;;11.90;;
19929;SDS011;10127;47.780;9.606;2023-01-28T16:44:45;19.43;;;11.17;;
19929;SDS011;10127;47.780;9.606;2023-01-28T16:47:11;20.23;;;11.80;;
19929;SDS011;10127;47.780;9.606;2023-01-28T16:49:37;19.43;;;11.20;;
19929;SDS011;10127;47.780;9.606;2023-01-28T16:52:03;22.20;;;12.10;;
19929;SDS011;10127;47.780;9.606;2023-01-28T16:54:30;21.10;;;12.27;;
19929;SDS011;10127;47.780;9.606;2023-01-28T16:56:56;22.40;;;12.43;;
19929;SDS011;10127;47.780;9.606;2023-01-28T16:59:22;20.33;;;12.57;;
19929;SDS011;10127;47.780;9.606;2023-01-28T17:01:48;20.10;;;12.30;;
19929;SDS011;10127;47.780;9.606;2023-01-28T17:04:13;20.47;;;12.30;;